createdAt,value
2022-12-31T00:01:07.890Z,100418.50
2022-12-31T00:03:34.666Z,100425.56
2022-12-31T00:06:02.079Z,100429.91
2022-12-31T00:08:28.560Z,100426.53
2022-12-31T00:10:55.153Z,100421.59
2022-12-31T00:13:21.709Z,100418.97
2022-12-31T00:15:48.342Z,100407.75
2022-12-31T00:18:14.832Z,100427.28
2022-12-31T00:20:42.089Z,100432.50
2022-12-31T00:23:10.025Z,100430.38
2022-12-31T00:25:36.759Z,100431.47
2022-12-31T00:28:04.695Z,100435.13
2022-12-31T00:30:31.621Z,100434.84
2022-12-31T00:32:58.132Z,100427.47
2022-12-31T00:35:24.627Z,100439.44
2022-12-31T00:37:53.232Z,100440.25
2022-12-31T00:40:20.250Z,100438.69
2022-12-31T00:42:46.711Z,100441.31
2022-12-31T00:45:13.222Z,100436.06
2022-12-31T00:47:39.676Z,100444.69
2022-12-31T00:50:06.548Z,100449.16
2022-12-31T00:52:33.074Z,100445.75
2022-12-31T00:54:59.558Z,100448.38
2022-12-31T00:57:26.019Z,100434.84
2022-12-31T00:59:52.575Z,100448.09
2022-12-31T01:02:19.176Z,100439.31
2022-12-31T01:04:45.812Z,100441.44
2022-12-31T01:07:12.268Z,100443.09
2022-12-31T01:09:39.211Z,100438.94
2022-12-31T01:12:06.872Z,100436.59
2022-12-31T01:14:33.917Z,100433.03
2022-12-31T01:17:00.369Z,100446.91
2022-12-31T01:19:29.665Z,100437.03
2022-12-31T01:21:56.488Z,100447.47
2022-12-31T01:24:23.425Z,100447.75
2022-12-31T01:26:51.349Z,100443.63
2022-12-31T01:29:17.959Z,100444.97
2022-12-31T01:31:44.568Z,100449.44
2022-12-31T01:34:11.192Z,100445.56
2022-12-31T01:36:38.683Z,100440.34
2022-12-31T01:39:07.298Z,100446.94
2022-12-31T01:41:39.939Z,100447.69
2022-12-31T01:44:12.568Z,100444.59
2022-12-31T01:46:46.537Z,100459.81
2022-12-31T01:49:18.690Z,100451.50
2022-12-31T01:51:51.685Z,100443.94
2022-12-31T01:54:21.322Z,100452.06
2022-12-31T01:56:50.426Z,100454.53
2022-12-31T01:59:18.884Z,100456.81
2022-12-31T02:01:48.259Z,100465.72
2022-12-31T02:04:15.876Z,100472.81
2022-12-31T02:07:05.534Z,100476.47
2022-12-31T02:09:33.150Z,100478.78
2022-12-31T02:11:59.793Z,100457.41
2022-12-31T02:14:33.876Z,100452.19
2022-12-31T02:17:06.055Z,100441.75
2022-12-31T02:20:03.068Z,100445.41
2022-12-31T02:22:35.525Z,100442.03
2022-12-31T02:25:28.195Z,100441.06
2022-12-31T02:28:06.682Z,100435.09
2022-12-31T02:30:33.342Z,100438.75
2022-12-31T02:33:42.622Z,100419.41
2022-12-31T02:36:15.880Z,100406.91
2022-12-31T02:38:46.695Z,100412.16
2022-12-31T02:41:40.548Z,100416.13
2022-12-31T02:44:25.187Z,100415.84
2022-12-31T02:46:58.930Z,100407.53
2022-12-31T02:49:37.587Z,100414.88
2022-12-31T02:52:14.740Z,100441.28
2022-12-31T02:54:57.005Z,100451.25
2022-12-31T02:57:37.317Z,100447.88
2022-12-31T03:00:29.604Z,100454.16
2022-12-31T03:02:57.949Z,100462.56
2022-12-31T03:05:27.996Z,100468.28
2022-12-31T03:07:54.518Z,100468.81
2022-12-31T03:10:21.740Z,100471.16
2022-12-31T03:12:48.824Z,100486.06
2022-12-31T03:15:21.678Z,100474.81
2022-12-31T03:17:59.061Z,100476.66
2022-12-31T03:21:04.585Z,100473.56
2022-12-31T03:23:39.036Z,100476.47
2022-12-31T03:26:14.295Z,100466.31
2022-12-31T03:28:46.190Z,100471.84
2022-12-31T03:31:13.465Z,100488.56
2022-12-31T03:33:42.316Z,100483.81
2022-12-31T03:36:17.293Z,100475.50
2022-12-31T03:38:46.405Z,100484.69
2022-12-31T03:41:16.423Z,100481.59
2022-12-31T03:43:43.060Z,100480.03
2022-12-31T03:46:24.389Z,100480.03
2022-12-31T03:48:51.679Z,100474.34
2022-12-31T03:51:18.106Z,100459.16
2022-12-31T03:53:44.527Z,100469.13
2022-12-31T03:56:10.991Z,100466.81
2022-12-31T03:58:47.009Z,100464.50
2022-12-31T04:01:13.532Z,100473.38
2022-12-31T04:03:42.852Z,100454.63
2022-12-31T04:06:09.291Z,100463.25
2022-12-31T04:08:38.344Z,100451.84
2022-12-31T04:11:04.743Z,100457.81
2022-12-31T04:13:33.150Z,100459.34
2022-12-31T04:15:59.614Z,100455.22
2022-12-31T04:18:26.450Z,100450.56
2022-12-31T04:20:55.834Z,100430.28
2022-12-31T04:23:22.513Z,100435.22
2022-12-31T04:25:48.966Z,100432.41
2022-12-31T04:28:15.502Z,100427.19
2022-12-31T04:30:41.960Z,100422.25
2022-12-31T04:33:08.418Z,100422.03
2022-12-31T04:35:35.145Z,100438.78
2022-12-31T04:38:01.624Z,100425.72
2022-12-31T04:40:28.656Z,100447.94
2022-12-31T04:42:55.102Z,100450.56
2022-12-31T04:45:21.619Z,100446.41
2022-12-31T04:47:48.034Z,100445.06
2022-12-31T04:50:14.585Z,100453.38
2022-12-31T04:52:43.059Z,100440.78
2022-12-31T04:55:10.607Z,100449.09
2022-12-31T04:57:37.067Z,100445.44
2022-12-31T05:00:03.916Z,100448.81
2022-12-31T05:02:30.555Z,100461.13
2022-12-31T05:04:57.211Z,100441.00
2022-12-31T05:07:23.739Z,100444.84
2022-12-31T05:09:50.215Z,100455.28
2022-12-31T05:12:16.629Z,100465.44
2022-12-31T05:14:43.109Z,100453.16
2022-12-31T05:17:09.588Z,100439.56
2022-12-31T05:19:36.029Z,100456.75
2022-12-31T05:22:21.150Z,100443.69
2022-12-31T05:24:47.672Z,100444.78
2022-12-31T05:27:14.143Z,100439.25
2022-12-31T05:29:40.583Z,100451.25
2022-12-31T05:32:07.035Z,100444.47
2022-12-31T05:34:33.456Z,100458.03
2022-12-31T05:36:59.892Z,100443.88
2022-12-31T05:39:26.325Z,100465.25
2022-12-31T05:41:52.852Z,100463.41
2022-12-31T05:44:19.337Z,100454.53
2022-12-31T05:46:47.142Z,100458.09
2022-12-31T05:49:13.582Z,100462.25
2022-12-31T05:51:40.077Z,100449.69
2022-12-31T05:54:06.537Z,100451.72
2022-12-31T05:56:33.505Z,100448.03
2022-12-31T05:58:59.936Z,100456.84
2022-12-31T06:01:26.431Z,100463.06
2022-12-31T06:03:53.029Z,100463.06
2022-12-31T06:06:19.464Z,100453.09
2022-12-31T06:08:52.479Z,100455.13
2022-12-31T06:11:18.894Z,100452.97
2022-12-31T06:13:45.454Z,100450.84
2022-12-31T06:16:12.095Z,100449.78
2022-12-31T06:18:38.563Z,100465.94
2022-12-31T06:21:05.407Z,100473.19
2022-12-31T06:23:32.305Z,100460.13
2022-12-31T06:26:05.136Z,100462.44
2022-12-31T06:28:31.823Z,100468.16
2022-12-31T06:31:03.393Z,100463.41
2022-12-31T06:33:30.025Z,100464.16
2022-12-31T06:36:01.935Z,100469.09
2022-12-31T06:38:30.746Z,100478.66
2022-12-31T06:40:58.376Z,100480.22
2022-12-31T06:43:25.242Z,100482.56
2022-12-31T06:45:51.732Z,100487.38
2022-12-31T06:48:18.737Z,100481.53
2022-12-31T06:50:45.185Z,100498.97
2022-12-31T06:53:11.773Z,100485.59
2022-12-31T06:55:38.517Z,100485.03
2022-12-31T06:58:05.479Z,100497.19
2022-12-31T07:00:32.216Z,100497.88
2022-12-31T07:03:15.895Z,100494.66
2022-12-31T07:05:50.866Z,100479.16
2022-12-31T07:08:49.548Z,100473.06
2022-12-31T07:11:23.609Z,100476.63
2022-12-31T07:14:27.779Z,100474.06
2022-12-31T07:17:02.011Z,100473.63
2022-12-31T07:19:45.741Z,100480.13
2022-12-31T07:22:15.792Z,100471.09
2022-12-31T07:24:51.605Z,100471.25
2022-12-31T07:27:46.860Z,100486.06
2022-12-31T07:30:21.066Z,100465.94
2022-12-31T07:33:19.657Z,100467.81
2022-12-31T07:36:16.857Z,100486.63
2022-12-31T07:39:14.822Z,100493.59
2022-12-31T07:42:05.283Z,100493.13
2022-12-31T07:44:56.549Z,100496.53
2022-12-31T07:47:28.148Z,100497.47
2022-12-31T07:49:56.294Z,100502.41
2022-12-31T07:52:23.733Z,100515.69
2022-12-31T07:54:50.258Z,100501.03
2022-12-31T07:57:19.069Z,100508.28
2022-12-31T08:00:04.217Z,100514.94
2022-12-31T08:03:08.596Z,100510.38
2022-12-31T08:06:11.719Z,100491.84
2022-12-31T08:08:53.603Z,100500.19
2022-12-31T08:11:36.714Z,100522.72
2022-12-31T08:14:03.828Z,100520.22
2022-12-31T08:16:30.662Z,100501.13
2022-12-31T08:18:57.505Z,100512.56
2022-12-31T08:21:43.513Z,100521.97
2022-12-31T08:24:17.546Z,100519.81
2022-12-31T08:27:05.198Z,100513.97
2022-12-31T08:29:44.909Z,100525.53
2022-12-31T08:32:37.700Z,100528.16
2022-12-31T08:41:07.417Z,100573.44
2022-12-31T08:43:50.092Z,100571.28
2022-12-31T08:46:46.094Z,100573.91
2022-12-31T08:49:14.750Z,100582.34
2022-12-31T08:51:41.689Z,100587.13
2022-12-31T08:54:11.177Z,100601.13
2022-12-31T08:57:09.267Z,100615.59
2022-12-31T08:59:38.564Z,100612.19
2022-12-31T09:02:07.802Z,100622.50
2022-12-31T09:05:12.041Z,100627.22
2022-12-31T09:07:44.861Z,100630.13
2022-12-31T09:10:22.904Z,100623.84
2022-12-31T09:13:05.391Z,100629.06
2022-12-31T09:15:48.041Z,100636.13
2022-12-31T09:18:14.954Z,100633.03
2022-12-31T09:20:43.397Z,100636.66
2022-12-31T09:23:12.713Z,100642.53
2022-12-31T09:25:46.950Z,100643.47
2022-12-31T09:28:47.095Z,100644.44
2022-12-31T09:31:17.753Z,100644.63
2022-12-31T09:33:52.318Z,100645.56
2022-12-31T09:36:34.871Z,100646.81
2022-12-31T09:39:16.045Z,100648.06
2022-12-31T09:42:13.967Z,100648.84
2022-12-31T09:45:22.070Z,100644.06
2022-12-31T09:48:17.901Z,100653.63
2022-12-31T09:50:56.908Z,100660.59
2022-12-31T09:53:39.448Z,100665.25
2022-12-31T09:56:42.481Z,100662.00
2022-12-31T09:59:27.198Z,100648.03
2022-12-31T10:01:59.466Z,100656.06
2022-12-31T10:04:45.338Z,100668.06
2022-12-31T10:07:39.869Z,100667.00
2022-12-31T10:10:22.616Z,100649.28
2022-12-31T10:13:21.693Z,100662.56
2022-12-31T10:16:09.913Z,100648.72
2022-12-31T10:18:53.706Z,100655.69
2022-12-31T10:21:32.247Z,100651.53
2022-12-31T10:24:18.114Z,100660.03
2022-12-31T10:27:03.147Z,100663.28
2022-12-31T10:29:56.775Z,100652.22
2022-12-31T10:32:32.324Z,100665.16
2022-12-31T10:35:14.697Z,100672.91
2022-12-31T10:38:23.697Z,100672.28
2022-12-31T10:41:36.844Z,100673.03
2022-12-31T10:44:12.684Z,100664.88
2022-12-31T10:47:00.928Z,100660.09
2022-12-31T10:49:58.416Z,100654.38
2022-12-31T10:52:39.755Z,100664.88
2022-12-31T10:55:33.213Z,100654.38
2022-12-31T10:58:32.208Z,100671.97
2022-12-31T11:00:58.695Z,100667.81
2022-12-31T11:03:37.584Z,100649.75
2022-12-31T11:06:10.732Z,100657.63
2022-12-31T11:09:08.334Z,100668.59
2022-12-31T11:11:49.499Z,100659.34
2022-12-31T11:14:43.146Z,100666.75
2022-12-31T11:17:20.861Z,100666.75
2022-12-31T11:20:15.018Z,100671.38
2022-12-31T11:23:06.150Z,100664.00
2022-12-31T11:25:51.220Z,100660.59
2022-12-31T11:28:30.569Z,100660.28
2022-12-31T11:31:32.878Z,100657.50
2022-12-31T11:34:29.836Z,100673.25
2022-12-31T11:37:53.564Z,100655.03
2022-12-31T11:40:33.849Z,100656.13
2022-12-31T11:43:36.187Z,100666.31
2022-12-31T11:46:34.281Z,100669.69
2022-12-31T11:49:11.980Z,100666.31
2022-12-31T11:52:21.576Z,100683.00
2022-12-31T11:55:09.243Z,100668.31
2022-12-31T11:57:38.170Z,100672.63
2022-12-31T12:00:13.268Z,100666.78
2022-12-31T12:02:45.688Z,100667.56
2022-12-31T12:05:16.786Z,100666.66
2022-12-31T12:07:43.529Z,100668.66
2022-12-31T12:10:27.914Z,100666.50
2022-12-31T12:13:00.285Z,100652.47
2022-12-31T12:15:29.874Z,100659.22
2022-12-31T12:17:59.293Z,100662.94
2022-12-31T12:20:33.492Z,100652.00
2022-12-31T12:23:12.628Z,100647.50
2022-12-31T12:25:42.552Z,100654.91
2022-12-31T12:28:30.924Z,100654.72
2022-12-31T12:33:48.329Z,100637.44
2022-12-31T12:36:17.973Z,100658.91
2022-12-31T12:38:44.598Z,100649.81
2022-12-31T12:41:32.414Z,100645.19
2022-12-31T12:44:16.836Z,100638.41
2022-12-31T12:46:51.826Z,100649.47
2022-12-31T12:49:36.421Z,100644.22
2022-12-31T12:52:40.323Z,100652.09
2022-12-31T12:55:36.897Z,100658.44
2022-12-31T12:58:19.699Z,100666.63
2022-12-31T13:01:19.415Z,100669.69
2022-12-31T13:07:36.799Z,100682.25
2022-12-31T13:10:22.198Z,100679.91
2022-12-31T13:13:25.046Z,100676.50
2022-12-31T13:16:29.880Z,100669.69
2022-12-31T13:19:02.110Z,100671.09
2022-12-31T13:21:32.471Z,100674.66
2022-12-31T13:24:06.447Z,100689.00
2022-12-31T13:26:45.699Z,100679.09
2022-12-31T13:29:20.937Z,100686.50
2022-12-31T13:31:51.113Z,100682.81
2022-12-31T13:34:25.900Z,100684.22
2022-12-31T13:36:57.200Z,100689.28
2022-12-31T13:39:31.954Z,100685.56
2022-12-31T13:42:26.449Z,100693.75
2022-12-31T13:45:02.397Z,100682.78
2022-12-31T13:48:26.676Z,100695.44
2022-12-31T13:54:46.815Z,100699.16
2022-12-31T13:58:06.097Z,100705.16
2022-12-31T14:00:39.971Z,100693.59
2022-12-31T14:03:36.541Z,100701.00
2022-12-31T14:06:15.211Z,100694.66
2022-12-31T14:08:41.734Z,100697.28
2022-12-31T14:11:18.586Z,100697.75
2022-12-31T14:13:59.756Z,100705.63
2022-12-31T14:16:39.130Z,100686.78
2022-12-31T14:19:30.684Z,100679.84
2022-12-31T14:22:18.316Z,100694.19
2022-12-31T14:24:51.203Z,100692.19
2022-12-31T14:27:38.621Z,100696.66
2022-12-31T14:30:15.598Z,100708.53
2022-12-31T14:33:06.129Z,100722.28
2022-12-31T14:35:38.928Z,100716.56
2022-12-31T14:38:28.353Z,100735.03
2022-12-31T14:41:27.330Z,100720.97
2022-12-31T14:44:27.512Z,100725.59
2022-12-31T14:47:11.951Z,100733.75
2022-12-31T14:49:41.349Z,100721.25
2022-12-31T14:52:25.641Z,100731.28
2022-12-31T14:55:12.560Z,100742.81
2022-12-31T14:58:25.434Z,100731.38
2022-12-31T15:00:30.726Z,100756.53
2022-12-31T15:03:24.933Z,100747.75
2022-12-31T15:05:51.318Z,100735.69
2022-12-31T15:08:31.534Z,100740.16
2022-12-31T15:11:30.322Z,100752.50
2022-12-31T15:14:23.454Z,100752.03
2022-12-31T15:17:06.885Z,100750.00
2022-12-31T15:20:16.877Z,100739.03
2022-12-31T15:22:50.903Z,100733.03
2022-12-31T15:25:41.393Z,100712.84
2022-12-31T15:28:33.304Z,100726.88
2022-12-31T15:31:19.359Z,100729.31
2022-12-31T15:34:35.159Z,100727.50
2022-12-31T15:37:27.857Z,100709.31
2022-12-31T15:40:07.364Z,100717.97
2022-12-31T15:42:50.223Z,100694.84
2022-12-31T15:45:24.517Z,100699.00
2022-12-31T15:47:57.408Z,100710.56
2022-12-31T15:50:25.031Z,100716.88
2022-12-31T15:52:55.156Z,100712.56
2022-12-31T15:55:46.038Z,100719.97
2022-12-31T15:58:18.689Z,100706.84
2022-12-31T16:01:16.792Z,100718.59
2022-12-31T16:03:56.447Z,100717.03
2022-12-31T16:06:25.476Z,100718.91
2022-12-31T16:08:52.023Z,100718.59
2022-12-31T16:11:19.132Z,100706.69
2022-12-31T16:13:49.157Z,100717.81
2022-12-31T16:16:23.164Z,100712.75
2022-12-31T16:18:56.161Z,100717.81
2022-12-31T16:21:39.038Z,100719.38
2022-12-31T16:24:23.497Z,100711.22
2022-12-31T16:26:53.116Z,100692.06
2022-12-31T16:29:22.224Z,100698.69
2022-12-31T16:31:50.190Z,100692.22
2022-12-31T16:34:19.172Z,100695.91
2022-12-31T16:36:59.428Z,100696.69
2022-12-31T16:39:30.407Z,100712.41
2022-12-31T16:42:17.635Z,100693.28
2022-12-31T16:44:44.782Z,100699.59
2022-12-31T16:47:19.305Z,100692.34
2022-12-31T16:49:50.255Z,100689.53
2022-12-31T16:52:31.747Z,100700.19
2022-12-31T16:55:00.140Z,100702.69
2022-12-31T16:57:32.384Z,100697.28
2022-12-31T17:00:04.108Z,100697.88
2022-12-31T17:02:54.930Z,100707.00
2022-12-31T17:05:26.543Z,100687.84
2022-12-31T17:07:53.134Z,100694.97
2022-12-31T17:10:35.019Z,100697.09
2022-12-31T17:13:29.377Z,100689.72
2022-12-31T17:15:57.729Z,100700.34
2022-12-31T17:18:27.095Z,100697.38
2022-12-31T17:20:55.149Z,100698.13
2022-12-31T17:23:34.228Z,100685.34
2022-12-31T17:26:07.621Z,100686.41
2022-12-31T17:28:45.630Z,100679.94
2022-12-31T17:31:40.273Z,100684.56
2022-12-31T17:34:19.241Z,100689.66
2022-12-31T17:36:59.116Z,100682.25
2022-12-31T17:39:27.625Z,100676.06
2022-12-31T17:41:57.165Z,100683.63
2022-12-31T17:44:35.182Z,100675.00
2022-12-31T17:47:02.655Z,100681.31
2022-12-31T17:49:31.818Z,100682.84
2022-12-31T17:51:58.554Z,100687.50
2022-12-31T17:54:26.570Z,100692.56
2022-12-31T17:56:53.844Z,100697.97
2022-12-31T17:59:37.071Z,100702.59
2022-12-31T18:02:05.291Z,100697.25
2022-12-31T18:04:31.858Z,100689.97
2022-12-31T18:06:58.347Z,100694.75
2022-12-31T18:09:25.018Z,100704.94
2022-12-31T18:11:54.348Z,100692.31
2022-12-31T18:14:23.390Z,100698.31
2022-12-31T18:16:50.099Z,100685.22
2022-12-31T18:19:45.850Z,100697.38
2022-12-31T18:22:03.251Z,100699.69
2022-12-31T18:24:29.835Z,100691.06
2022-12-31T18:26:56.333Z,100684.75
2022-12-31T18:29:23.032Z,100692.88
2022-12-31T18:31:50.748Z,100689.22
2022-12-31T18:34:18.609Z,100693.22
2022-12-31T18:36:45.377Z,100685.22
2022-12-31T18:39:11.927Z,100691.66
2022-12-31T18:41:42.292Z,100698.13
2022-12-31T18:44:11.452Z,100689.22
2022-12-31T18:46:37.891Z,100697.38
2022-12-31T18:49:04.585Z,100696.31
2022-12-31T18:51:32.313Z,100689.38
2022-12-31T18:54:00.643Z,100704.78
2022-12-31T18:56:27.668Z,100702.34
2022-12-31T18:58:54.225Z,100706.66
2022-12-31T19:01:37.834Z,100703.13
2022-12-31T19:04:18.696Z,100704.38
2022-12-31T19:06:49.895Z,100723.66
2022-12-31T19:09:43.375Z,100718.44
2022-12-31T19:12:07.488Z,100716.06
2022-12-31T19:14:35.603Z,100724.56
2022-12-31T19:19:27.721Z,100720.09
2022-12-31T19:21:54.174Z,100727.81
2022-12-31T19:24:23.111Z,100723.53
2022-12-31T19:26:50.034Z,100724.63
2022-12-31T19:29:21.374Z,100726.16
2022-12-31T19:31:51.710Z,100722.47
2022-12-31T19:34:18.327Z,100717.69
2022-12-31T19:36:45.301Z,100708.41
2022-12-31T19:39:32.754Z,100719.19
2022-12-31T19:41:59.886Z,100716.06
2022-12-31T19:44:26.757Z,100724.69
2022-12-31T19:46:56.004Z,100702.63
2022-12-31T19:49:22.479Z,100714.50
2022-12-31T19:51:48.993Z,100720.69
2022-12-31T19:54:15.696Z,100726.88
2022-12-31T19:56:42.717Z,100737.38
2022-12-31T19:59:10.683Z,100749.88
2022-12-31T20:01:39.708Z,100746.19
2022-12-31T20:04:06.624Z,100732.31
2022-12-31T20:06:33.412Z,100739.41
2022-12-31T20:08:59.893Z,100734.63
2022-12-31T20:11:26.463Z,100731.09
2022-12-31T20:13:54.008Z,100730.63
2022-12-31T20:16:23.573Z,100741.41
2022-12-31T20:18:50.613Z,100741.28
2022-12-31T20:21:21.825Z,100742.34
2022-12-31T20:23:49.947Z,100741.75
2022-12-31T20:26:18.012Z,100761.53
2022-12-31T20:28:44.568Z,100763.38
2022-12-31T20:31:14.899Z,100756.00
2022-12-31T20:33:42.095Z,100744.88
2022-12-31T20:36:11.473Z,100747.22
2022-12-31T20:38:38.116Z,100739.94
2022-12-31T20:41:08.771Z,100743.66
2022-12-31T20:43:36.113Z,100751.50
2022-12-31T20:46:16.150Z,100741.19
2022-12-31T20:48:44.404Z,100755.44
2022-12-31T20:51:11.597Z,100755.91
2022-12-31T20:53:38.273Z,100762.50
2022-12-31T20:56:09.474Z,100755.09
2022-12-31T20:58:36.247Z,100756.50
2022-12-31T21:01:06.614Z,100751.72
2022-12-31T21:06:26.599Z,100756.84
2022-12-31T21:08:54.791Z,100755.91
2022-12-31T21:11:39.744Z,100753.63
2022-12-31T21:14:09.176Z,100758.44
2022-12-31T21:16:36.964Z,100751.78
2022-12-31T21:19:03.839Z,100772.16
2022-12-31T21:21:30.262Z,100766.31
2022-12-31T21:23:56.813Z,100767.84
2022-12-31T21:26:23.341Z,100772.63
2022-12-31T21:28:49.814Z,100768.75
2022-12-31T21:31:16.486Z,100778.50
2022-12-31T21:33:49.391Z,100783.56
2022-12-31T21:36:16.230Z,100782.34
2022-12-31T21:38:43.782Z,100795.75
2022-12-31T21:41:33.503Z,100801.94
2022-12-31T21:44:01.479Z,100802.75
2022-12-31T21:46:28.313Z,100807.19
2022-12-31T21:48:57.956Z,100814.00
2022-12-31T21:51:24.635Z,100807.53
2022-12-31T21:53:51.662Z,100803.16
2022-12-31T21:56:22.883Z,100800.06
2022-12-31T21:59:31.307Z,100797.91
2022-12-31T22:02:16.227Z,100803.34
2022-12-31T22:05:01.859Z,100805.38
2022-12-31T22:07:36.131Z,100808.75
2022-12-31T22:10:03.348Z,100819.25
2022-12-31T22:12:29.864Z,100807.38
2022-12-31T22:15:14.565Z,100793.94
2022-12-31T22:20:29.832Z,100802.28
2022-12-31T22:22:56.544Z,100794.91
2022-12-31T22:25:22.969Z,100799.78
2022-12-31T22:28:37.022Z,100807.06
2022-12-31T22:30:35.933Z,100811.22
2022-12-31T22:33:03.803Z,100817.56
2022-12-31T22:35:30.503Z,100816.81
2022-12-31T22:38:00.887Z,100808.31
2022-12-31T22:40:31.773Z,100809.06
2022-12-31T22:42:58.293Z,100811.09
2022-12-31T22:45:24.838Z,100807.19
2022-12-31T22:47:51.355Z,100799.97
2022-12-31T22:50:17.979Z,100815.28
2022-12-31T22:52:44.487Z,100821.91
2022-12-31T22:55:11.677Z,100818.03
2022-12-31T22:57:38.129Z,100818.97
2022-12-31T23:00:10.011Z,100830.44
2022-12-31T23:02:41.509Z,100814.69
2022-12-31T23:05:15.118Z,100835.53
2022-12-31T23:07:42.730Z,100818.22
2022-12-31T23:10:29.158Z,100830.53
2022-12-31T23:12:55.572Z,100834.13
2022-12-31T23:15:40.579Z,100837.34
2022-12-31T23:18:25.376Z,100843.09
2022-12-31T23:21:10.245Z,100850.97
2022-12-31T23:23:38.558Z,100847.25
2022-12-31T23:26:10.504Z,100858.06
2022-12-31T23:28:36.934Z,100873.03
2022-12-31T23:31:06.618Z,100849.88
2022-12-31T23:33:33.094Z,100857.56
2022-12-31T23:36:05.603Z,100861.47
2022-12-31T23:38:32.056Z,100865.22
2022-12-31T23:40:58.604Z,100851.28
2022-12-31T23:43:25.131Z,100858.22
2022-12-31T23:45:52.543Z,100856.06
2022-12-31T23:48:19.364Z,100862.41
2022-12-31T23:50:53.018Z,100869.81
2022-12-31T23:53:20.985Z,100884.16
2022-12-31T23:55:47.458Z,100876.66
2022-12-31T23:58:13.890Z,100880.97
